Time;durP1;ratioP1;P1;durP2;ratioP2;P2;SDS_P1;SDS_P2;PMS_P1;PMS_P2;Temp;Humidity;BMP_temperature;BMP_pressure;BME280_temperature;BME280_humidity;BME280_pressure;Samples;Min_cycle;Max_cycle;Signal;HPM_P1;HPM_P2
2021/12/06 00:00:24;;;;;;;151.32;73.15;;;;;;;0.71;91.01;97082.64;1752171;81;20948;-57
2021/12/06 00:02:54;;;;;;;140.57;74.72;;;;;;;0.71;91.55;97086.64;1757126;79;21020;-57
2021/12/06 00:07:44;;;;;;;144.62;76.28;;;;;;;0.69;91.06;97090.89;1864710;76;22195;-56
2021/12/06 00:10:11;;;;;;;142.65;72.97;;;;;;;0.63;90.72;97093.70;1831783;77;20997;-56
2021/12/06 00:12:37;;;;;;;149.12;76.55;;;;;;;0.58;90.61;97088.26;1850176;77;21622;-56
2021/12/06 00:15:04;;;;;;;154.10;81.12;;;;;;;0.53;90.59;97090.32;1849895;76;21019;-57
2021/12/06 00:17:30;;;;;;;154.60;78.55;;;;;;;0.52;90.59;97087.38;1845238;76;21515;-57
2021/12/06 00:19:56;;;;;;;153.35;80.97;;;;;;;0.58;90.86;97088.26;1816696;78;21021;-57
2021/12/06 00:22:23;;;;;;;151.35;79.05;;;;;;;0.62;91.22;97088.89;1824996;77;21001;-57
2021/12/06 00:24:51;;;;;;;162.27;84.75;;;;;;;0.67;90.91;97086.82;1803043;79;21421;-57
2021/12/06 00:27:17;;;;;;;148.57;80.95;;;;;;;0.70;90.85;97086.36;1797702;77;20988;-56
2021/12/06 00:29:43;;;;;;;144.47;77.65;;;;;;;0.73;90.87;97088.02;1814732;79;20855;-57
2021/12/06 00:32:09;;;;;;;151.63;80.17;;;;;;;0.74;90.73;97092.30;1814915;79;21009;-57
2021/12/06 00:34:37;;;;;;;142.13;77.95;;;;;;;0.75;90.55;97089.11;1849721;77;21068;-57
2021/12/06 00:37:18;;;;;;;155.00;77.58;;;;;;;0.73;91.47;97089.34;1780613;80;22228;-57
2021/12/06 00:39:47;;;;;;;140.80;75.45;;;;;;;0.72;91.47;97088.27;1780797;80;21068;-57
2021/12/06 00:42:14;;;;;;;149.18;77.55;;;;;;;0.67;91.26;97087.63;1774667;80;21016;-57
2021/12/06 00:44:39;;;;;;;167.98;85.62;;;;;;;0.65;90.99;97084.40;1752059;81;21531;-57
2021/12/06 00:47:06;;;;;;;139.80;77.75;;;;;;;0.66;91.23;97084.68;1754431;81;20956;-57
2021/12/06 00:49:32;;;;;;;152.75;80.62;;;;;;;0.67;91.76;97086.30;1761793;81;21130;-56
2021/12/06 00:51:58;;;;;;;149.40;75.52;;;;;;;0.68;91.44;97089.77;1767191;80;21052;-57
2021/12/06 00:54:24;;;;;;;156.00;78.95;;;;;;;0.69;91.68;97094.89;1793166;80;21683;-57
2021/12/06 00:56:50;;;;;;;151.00;77.42;;;;;;;0.71;91.62;97094.65;1793392;80;20913;-57
2021/12/06 00:59:16;;;;;;;137.77;75.35;;;;;;;0.71;91.97;97091.45;1793151;80;20964;-57
2021/12/06 01:01:42;;;;;;;150.57;79.20;;;;;;;0.72;91.63;97084.27;1793212;80;21403;-57
2021/12/06 01:04:08;;;;;;;143.57;73.85;;;;;;;0.74;91.40;97093.63;1793175;80;20932;-57
2021/12/06 01:06:33;;;;;;;135.78;74.55;;;;;;;0.77;91.21;97095.00;1793360;80;20968;-57
2021/12/06 01:08:59;;;;;;;142.93;68.87;;;;;;;0.77;91.89;97099.84;1793139;80;21543;-57
2021/12/06 01:11:25;;;;;;;142.45;72.00;;;;;;;0.74;91.13;97101.62;1762969;80;21058;-57
2021/12/06 01:13:51;;;;;;;165.18;82.55;;;;;;;0.71;91.29;97101.31;1792100;80;21397;-57
2021/12/06 01:16:17;;;;;;;144.05;74.22;;;;;;;0.69;91.88;97091.42;1793118;80;20874;-57
2021/12/06 01:18:43;;;;;;;143.78;74.37;;;;;;;0.68;92.42;97097.24;1792775;80;20881;-57
2021/12/06 01:23:58;;;;;;;146.60;72.60;;;;;;;0.64;91.80;97081.98;1792848;80;20989;-57
2021/12/06 01:29:08;;;;;;;151.57;73.55;;;;;;;0.66;92.23;97080.68;1791498;80;21499;-59
2021/12/06 01:39:13;;;;;;;153.02;77.67;;;;;;;0.74;91.44;97072.83;1751699;81;21533;-59
2021/12/06 01:41:48;;;;;;;154.87;78.97;;;;;;;0.77;91.34;97081.66;1751586;81;21018;-59
2021/12/06 01:44:20;;;;;;;145.72;76.92;;;;;;;0.84;91.25;97090.33;1729804;81;21018;-57
2021/12/06 01:47:00;;;;;;;151.57;78.28;;;;;;;0.86;91.17;97078.92;1759131;81;21071;-58
2021/12/06 01:49:31;;;;;;;149.65;81.78;;;;;;;0.87;90.95;97082.39;1751801;81;21614;-57
2021/12/06 01:51:59;;;;;;;145.00;77.62;;;;;;;0.87;91.00;97082.39;1752667;81;21552;-57
2021/12/06 01:54:25;;;;;;;159.35;83.27;;;;;;;0.86;90.81;97082.12;1752260;81;21013;-57
2021/12/06 01:56:51;;;;;;;151.37;79.70;;;;;;;0.86;90.82;97080.25;1751669;81;20989;-58
2021/12/06 01:59:17;;;;;;;166.85;78.45;;;;;;;0.83;90.76;97076.72;1751512;81;21033;-58
2021/12/06 02:01:43;;;;;;;152.97;82.40;;;;;;;0.73;90.66;97075.20;1751879;81;20981;-57
2021/12/06 02:04:09;;;;;;;164.30;86.42;;;;;;;0.69;91.33;97079.41;1786880;80;21573;-58
2021/12/06 02:06:36;;;;;;;167.62;85.92;;;;;;;0.68;91.31;97079.91;1733947;80;20935;-57
2021/12/06 02:09:09;;;;;;;161.20;84.52;;;;;;;0.69;91.29;97087.42;1758927;81;21090;-58
2021/12/06 02:11:36;;;;;;;170.50;91.25;;;;;;;0.69;91.59;97095.42;1731465;81;21034;-58
2021/12/06 02:14:16;;;;;;;171.18;82.82;;;;;;;0.69;92.16;97095.42;1751892;81;21038;-58
2021/12/06 02:16:42;;;;;;;170.75;88.20;;;;;;;0.68;91.24;97098.58;1747770;81;21562;-57
2021/12/06 02:19:04;;;;;;;173.75;89.35;;;;;;;0.67;91.53;97096.96;1745466;81;21669;-58
2021/12/06 02:21:31;;;;;;;170.10;83.25;;;;;;;0.69;91.96;97092.75;1751325;81;21037;-58
2021/12/06 02:23:58;;;;;;;156.50;81.02;;;;;;;0.69;91.87;97086.89;1751007;81;21002;-57
2021/12/06 02:26:24;;;;;;;146.10;79.82;;;;;;;0.66;92.37;97083.34;1730968;82;21026;-58
2021/12/06 02:28:50;;;;;;;151.12;75.20;;;;;;;0.65;92.05;97076.93;1789622;80;22255;-58
2021/12/06 02:31:19;;;;;;;145.00;77.40;;;;;;;0.66;92.71;97080.68;1792609;80;21094;-57
2021/12/06 02:33:46;;;;;;;131.50;69.30;;;;;;;0.67;92.29;97093.48;1792633;80;21573;-57
2021/12/06 02:36:12;;;;;;;151.20;74.37;;;;;;;0.68;92.05;97097.77;1792825;79;21052;-58
2021/12/06 02:38:38;;;;;;;163.07;80.92;;;;;;;0.66;91.82;97107.88;1780161;80;21008;-58
2021/12/06 02:41:04;;;;;;;157.90;83.42;;;;;;;0.69;91.64;97110.08;1792725;80;22222;-57
2021/12/06 02:43:33;;;;;;;153.78;76.70;;;;;;;0.72;91.67;97113.06;1758499;80;20884;-57
2021/12/06 02:45:58;;;;;;;139.40;75.37;;;;;;;0.77;91.62;97114.51;1731445;82;21063;-57
2021/12/06 02:48:24;;;;;;;146.82;74.03;;;;;;;0.78;91.41;97115.31;1748559;81;20868;-57
2021/12/06 02:50:53;;;;;;;148.75;76.82;;;;;;;0.75;91.33;97113.91;1751822;81;20982;-57
2021/12/06 02:53:23;;;;;;;146.37;76.17;;;;;;;0.72;91.33;97109.07;1757985;81;21367;-58
2021/12/06 02:55:52;;;;;;;159.35;84.80;;;;;;;0.69;92.78;97109.55;1761360;81;21028;-57
2021/12/06 02:58:55;;;;;;;154.03;81.95;;;;;;;0.69;92.73;97108.22;1754307;81;21085;-58
2021/12/06 03:01:07;;;;;;;153.42;82.65;;;;;;;0.69;93.42;97101.56;1747383;81;21504;-57
2021/12/06 03:03:33;;;;;;;156.55;78.55;;;;;;;0.70;92.97;97102.36;1759395;81;20976;-57
2021/12/06 03:05:59;;;;;;;154.53;76.90;;;;;;;0.71;92.86;97098.12;1739849;81;21562;-57
2021/12/06 03:08:48;;;;;;;152.10;77.78;;;;;;;0.74;92.44;97102.16;1750467;81;20963;-57
2021/12/06 03:11:18;;;;;;;141.97;72.78;;;;;;;0.74;92.38;97093.63;1734408;81;21525;-58
2021/12/06 03:13:44;;;;;;;158.15;77.97;;;;;;;0.73;92.21;97096.55;1752918;81;21032;-57
2021/12/06 03:16:10;;;;;;;146.70;78.50;;;;;;;0.74;92.18;97093.63;1761278;81;21004;-58
2021/12/06 03:18:36;;;;;;;160.28;78.92;;;;;;;0.75;91.91;97085.91;1751286;80;21540;-57
2021/12/06 03:21:03;;;;;;;152.57;80.75;;;;;;;0.77;91.86;97083.84;1731502;82;20877;-57
2021/12/06 03:23:30;;;;;;;147.07;80.05;;;;;;;0.81;91.75;97074.30;1747511;81;21192;-57
2021/12/06 03:25:56;;;;;;;143.65;79.00;;;;;;;0.82;91.69;97070.58;1734209;81;21027;-57
2021/12/06 03:28:22;;;;;;;152.93;74.87;;;;;;;0.86;91.61;97066.11;1768348;80;20969;-57
2021/12/06 03:30:48;;;;;;;144.65;79.65;;;;;;;0.87;91.54;97059.20;1792616;80;21508;-57
2021/12/06 03:33:13;;;;;;;150.65;77.25;;;;;;;0.87;91.67;97064.53;1792532;80;20873;-57
2021/12/06 03:35:39;;;;;;;146.20;74.42;;;;;;;0.85;91.76;97073.28;1792863;80;20897;-57
2021/12/06 03:38:05;;;;;;;152.30;78.20;;;;;;;0.82;91.35;97080.44;1756722;80;21497;-57
2021/12/06 03:40:31;;;;;;;143.20;72.12;;;;;;;0.78;91.27;97078.78;1731270;82;20869;-57
2021/12/06 03:42:57;;;;;;;153.55;80.38;;;;;;;0.71;91.34;97079.45;1746266;81;21568;-57
2021/12/06 03:45:23;;;;;;;146.18;77.78;;;;;;;0.71;91.39;97070.65;1761297;81;21561;-57
2021/12/06 03:47:49;;;;;;;142.00;75.25;;;;;;;0.75;91.42;97069.10;1758634;81;20892;-57
2021/12/06 03:50:15;;;;;;;149.85;77.95;;;;;;;0.79;91.49;97068.92;1761650;81;21539;-57
2021/12/06 03:52:41;;;;;;;150.45;78.78;;;;;;;0.82;91.42;97078.58;1761235;81;20995;-58
2021/12/06 03:55:08;;;;;;;152.40;77.55;;;;;;;0.86;91.53;97084.26;1761470;81;21157;-57
2021/12/06 03:57:34;;;;;;;155.93;81.17;;;;;;;0.88;91.38;97090.68;1759598;81;21689;-57
2021/12/06 04:00:00;;;;;;;151.65;80.22;;;;;;;0.91;91.29;97087.52;1751616;81;21077;-57
2021/12/06 04:02:28;;;;;;;152.05;81.20;;;;;;;0.91;91.27;97080.33;1751519;81;22064;-57
2021/12/06 04:04:54;;;;;;;157.57;78.87;;;;;;;0.84;92.26;97076.47;1746609;81;21062;-57
2021/12/06 04:07:21;;;;;;;180.67;86.78;;;;;;;0.83;92.03;97096.19;1736310;81;21387;-57
2021/12/06 04:09:47;;;;;;;166.85;84.05;;;;;;;0.82;91.51;97104.44;1764626;79;21016;-57
2021/12/06 04:12:14;;;;;;;163.20;80.42;;;;;;;0.73;91.32;97104.54;1775249;80;21039;-57
2021/12/06 04:14:41;;;;;;;164.82;86.32;;;;;;;0.69;91.44;97092.22;1779779;80;20994;-57
2021/12/06 04:17:07;;;;;;;152.87;83.60;;;;;;;0.72;91.39;97098.41;1780229;80;21028;-57
2021/12/06 04:19:32;;;;;;;151.05;77.08;;;;;;;0.69;91.32;97112.75;1779805;80;21796;-57
2021/12/06 04:21:58;;;;;;;150.97;79.92;;;;;;;0.65;91.53;97124.92;1780089;79;20850;-57
2021/12/06 04:24:24;;;;;;;150.38;80.32;;;;;;;0.60;91.58;97131.48;1770145;80;20924;-57
2021/12/06 04:26:50;;;;;;;160.55;86.95;;;;;;;0.52;91.97;97108.17;1736580;81;20838;-57
2021/12/06 04:29:16;;;;;;;172.13;95.00;;;;;;;0.49;94.44;97082.50;1769599;81;21043;-57
2021/12/06 04:31:49;;;;;;;165.32;89.17;;;;;;;0.48;94.59;97079.55;1778140;80;21388;-57
2021/12/06 04:34:15;;;;;;;160.65;87.47;;;;;;;0.53;93.36;97107.13;1730814;81;21054;-57
2021/12/06 04:36:42;;;;;;;159.70;86.97;;;;;;;0.60;92.99;97104.81;1732266;81;21027;-58
2021/12/06 04:39:13;;;;;;;168.45;84.62;;;;;;;0.60;93.79;97094.98;1760792;81;21018;-57
2021/12/06 04:41:39;;;;;;;152.07;82.88;;;;;;;0.61;93.69;97093.94;1753872;81;21660;-57
2021/12/06 04:44:05;;;;;;;156.95;86.70;;;;;;;0.62;93.10;97102.22;1747031;81;21418;-58
2021/12/06 04:46:31;;;;;;;154.70;84.92;;;;;;;0.67;92.89;97122.30;1751572;81;20948;-57
2021/12/06 04:48:57;;;;;;;173.28;96.57;;;;;;;0.72;92.79;97131.73;1751392;81;21042;-58
2021/12/06 04:51:23;;;;;;;160.00;91.17;;;;;;;0.75;92.64;97140.58;1751923;81;20914;-58
2021/12/06 04:53:49;;;;;;;163.05;87.47;;;;;;;0.74;92.56;97152.83;1781885;80;21005;-57
2021/12/06 04:56:29;;;;;;;145.87;77.35;;;;;;;0.72;92.50;97150.41;1792749;80;22350;-58
2021/12/06 04:59:13;;;;;;;137.20;72.22;;;;;;;0.73;92.31;97160.02;1746762;80;21069;-58
2021/12/06 05:01:40;;;;;;;116.15;60.60;;;;;;;0.76;92.38;97164.87;1724603;81;21097;-58
2021/12/06 05:04:20;;;;;;;112.28;55.25;;;;;;;0.74;91.98;97161.64;1759249;81;21350;-57
2021/12/06 05:06:49;;;;;;;128.97;65.10;;;;;;;0.75;91.92;97164.59;1760231;81;21086;-58
2021/12/06 05:09:22;;;;;;;146.37;78.87;;;;;;;0.74;92.14;97168.83;1754499;79;26979;-57
2021/12/06 05:11:49;;;;;;;143.80;79.62;;;;;;;0.74;92.21;97166.16;1790695;79;21000;-58
2021/12/06 05:14:15;;;;;;;117.33;64.58;;;;;;;0.73;93.13;97168.02;1751539;81;21050;-57
2021/12/06 05:16:41;;;;;;;129.30;65.42;;;;;;;0.72;92.81;97156.27;1751731;81;21050;-57
2021/12/06 05:19:07;;;;;;;139.82;74.72;;;;;;;0.71;92.42;97162.12;1751636;81;20977;-58
2021/12/06 05:21:33;;;;;;;152.80;77.53;;;;;;;0.69;92.63;97159.41;1751881;81;21551;-57
2021/12/06 05:23:59;;;;;;;152.47;82.82;;;;;;;0.67;93.05;97156.96;1759699;81;21022;-57
2021/12/06 05:26:25;;;;;;;180.42;97.45;;;;;;;0.66;94.38;97158.01;1731097;82;20975;-58
2021/12/06 05:28:56;;;;;;;162.37;88.90;;;;;;;0.69;93.94;97162.08;1745359;81;20879;-57
2021/12/06 05:31:20;;;;;;;151.75;84.75;;;;;;;0.72;93.37;97167.73;1751216;81;21073;-58
2021/12/06 05:33:52;;;;;;;147.57;77.37;;;;;;;0.75;93.19;97169.92;1753547;81;21458;-57
2021/12/06 05:36:16;;;;;;;151.35;81.63;;;;;;;0.80;92.99;97180.70;1751387;81;22224;-58
2021/12/06 05:38:43;;;;;;;154.12;86.32;;;;;;;0.86;92.78;97189.62;1753561;81;20890;-57
2021/12/06 05:41:09;;;;;;;140.55;75.28;;;;;;;0.88;92.65;97188.84;1751191;81;21009;-57
2021/12/06 05:43:35;;;;;;;143.90;74.60;;;;;;;0.89;92.73;97181.13;1766713;80;20948;-58
2021/12/06 05:46:01;;;;;;;138.37;73.30;;;;;;;0.94;92.54;97189.23;1792952;80;21660;-58
2021/12/06 05:48:27;;;;;;;138.03;75.83;;;;;;;0.93;92.32;97182.78;1792143;80;21585;-57
2021/12/06 05:50:53;;;;;;;129.75;69.80;;;;;;;0.87;92.18;97179.75;1792960;80;20977;-58
2021/12/06 05:53:19;;;;;;;114.47;66.53;;;;;;;0.87;92.31;97181.09;1765935;80;21568;-58
2021/12/06 05:55:46;;;;;;;108.57;60.50;;;;;;;0.90;92.26;97181.94;1761603;81;20861;-58
2021/12/06 05:58:13;;;;;;;110.50;58.25;;;;;;;0.93;92.22;97185.45;1745485;81;22470;-58
2021/12/06 06:00:39;;;;;;;106.80;56.53;;;;;;;0.93;92.12;97180.11;1733383;81;21038;-57
2021/12/06 06:03:05;;;;;;;104.20;52.48;;;;;;;0.94;92.17;97173.73;1750091;80;21022;-58
2021/12/06 06:05:34;;;;;;;105.65;54.65;;;;;;;0.90;92.32;97172.08;1760979;80;21475;-58
2021/12/06 06:08:01;;;;;;;107.47;53.63;;;;;;;0.92;92.12;97183.31;1759976;80;26487;-58
2021/12/06 06:10:27;;;;;;;110.92;55.10;;;;;;;0.91;92.12;97188.36;1758520;80;21502;-57
2021/12/06 06:12:52;;;;;;;113.08;58.05;;;;;;;0.91;92.29;97192.36;1776645;80;21530;-58
2021/12/06 06:15:18;;;;;;;131.25;60.00;;;;;;;0.86;92.54;97190.14;1750759;80;20885;-57
2021/12/06 06:17:47;;;;;;;109.17;51.00;;;;;;;0.81;93.08;97195.65;1763371;80;21004;-57
2021/12/06 06:20:35;;;;;;;155.27;74.67;;;;;;;0.81;93.37;97196.98;1749485;82;21509;-57
2021/12/06 06:23:01;;;;;;;147.82;65.60;;;;;;;0.83;92.69;97199.41;1673327;83;22338;-57
2021/12/06 06:25:28;;;;;;;140.85;63.02;;;;;;;0.86;92.52;97202.15;1745295;79;21003;-57
2021/12/06 06:27:53;;;;;;;131.03;56.20;;;;;;;0.90;92.65;97212.61;1779848;80;21141;-57
2021/12/06 06:30:19;;;;;;;117.33;51.33;;;;;;;0.90;93.36;97218.76;1780329;79;20838;-58
2021/12/06 06:32:46;;;;;;;125.75;56.95;;;;;;;0.92;92.50;97221.18;1753136;80;20903;-57
2021/12/06 06:35:13;;;;;;;166.40;73.05;;;;;;;0.88;92.45;97216.86;1761404;81;21434;-58
2021/12/06 06:37:39;;;;;;;150.38;66.02;;;;;;;0.86;92.62;97214.15;1749678;81;21119;-57
2021/12/06 06:40:07;;;;;;;143.10;63.68;;;;;;;0.86;92.54;97216.81;1742687;81;21018;-58
2021/12/06 06:42:34;;;;;;;221.55;88.85;;;;;;;0.84;92.35;97223.70;1753291;81;21581;-57
2021/12/06 06:45:00;;;;;;;131.00;56.58;;;;;;;0.82;92.70;97235.94;1761426;81;21074;-57
2021/12/06 06:47:26;;;;;;;129.05;52.90;;;;;;;0.85;92.65;97247.98;1734632;81;21478;-57
2021/12/06 06:49:52;;;;;;;96.57;45.63;;;;;;;0.81;93.54;97242.33;1734738;81;20947;-57
2021/12/06 06:52:18;;;;;;;112.68;51.08;;;;;;;0.84;92.84;97250.37;1747157;81;20958;-57
2021/12/06 06:54:44;;;;;;;104.45;46.30;;;;;;;0.84;92.98;97253.84;1748810;81;20957;-58
2021/12/06 06:57:10;;;;;;;102.00;48.08;;;;;;;0.86;92.73;97258.97;1745599;81;20911;-58
2021/12/06 06:59:36;;;;;;;112.03;52.17;;;;;;;0.87;92.59;97259.25;1742466;81;21735;-58
2021/12/06 07:02:02;;;;;;;134.52;57.23;;;;;;;0.89;92.60;97266.48;1733646;81;20871;-57
2021/12/06 07:04:28;;;;;;;150.18;68.90;;;;;;;0.91;92.37;97264.91;1750505;80;21740;-58
2021/12/06 07:06:54;;;;;;;124.75;56.58;;;;;;;0.91;92.38;97263.58;1747143;80;20971;-58
2021/12/06 07:09:20;;;;;;;115.35;48.65;;;;;;;0.91;92.23;97263.05;1740827;80;20987;-58
2021/12/06 07:11:46;;;;;;;104.25;49.70;;;;;;;0.89;92.64;97263.02;1756242;80;21808;-57
2021/12/06 07:14:13;;;;;;;96.15;42.30;;;;;;;0.91;92.58;97263.58;1743611;80;21489;-58
2021/12/06 07:16:40;;;;;;;104.75;50.08;;;;;;;0.90;92.33;97267.30;1752034;80;21818;-58
2021/12/06 07:19:07;;;;;;;104.07;47.40;;;;;;;0.92;92.45;97278.02;1742191;80;21038;-58
2021/12/06 07:21:34;;;;;;;100.33;48.05;;;;;;;0.88;92.38;97282.21;1748968;81;21117;-57
2021/12/06 07:24:00;;;;;;;91.02;43.17;;;;;;;0.90;92.38;97277.97;1757588;81;21911;-58
2021/12/06 07:26:26;;;;;;;97.55;46.68;;;;;;;0.88;92.54;97276.88;1762871;80;20964;-58
2021/12/06 07:28:54;;;;;;;104.75;48.58;;;;;;;0.89;92.53;97274.49;1755617;80;20889;-57
2021/12/06 07:31:20;;;;;;;170.45;70.05;;;;;;;0.88;92.96;97281.41;1739219;80;21185;-58
2021/12/06 07:33:46;;;;;;;143.68;66.57;;;;;;;0.89;92.97;97280.35;1745108;81;20954;-58
2021/12/06 07:36:12;;;;;;;133.72;58.52;;;;;;;0.88;92.82;97286.73;1750491;80;21231;-58
2021/12/06 07:38:38;;;;;;;124.45;57.43;;;;;;;0.86;92.57;97274.16;1742409;81;21711;-57
2021/12/06 07:41:08;;;;;;;146.13;59.85;;;;;;;0.85;92.67;97279.99;1747778;80;21155;-57
2021/12/06 07:43:34;;;;;;;143.37;63.20;;;;;;;0.87;93.00;97279.27;1748971;80;21541;-58
2021/12/06 07:46:01;;;;;;;159.30;64.72;;;;;;;0.88;92.79;97289.41;1755900;80;21092;-57
2021/12/06 07:48:26;;;;;;;140.37;60.15;;;;;;;0.91;92.57;97296.92;1748737;81;21138;-58
2021/12/06 07:50:52;;;;;;;122.92;57.25;;;;;;;0.90;93.05;97298.78;1741565;80;20942;-58
2021/12/06 07:53:18;;;;;;;77.70;38.42;;;;;;;0.89;92.92;97291.02;1747703;80;20955;-58
2021/12/06 07:55:44;;;;;;;80.67;42.00;;;;;;;0.82;94.17;97293.81;1749995;80;20920;-58
2021/12/06 07:58:10;;;;;;;75.08;38.88;;;;;;;0.87;93.53;97294.45;1746753;80;20909;-58
2021/12/06 08:00:40;;;;;;;78.22;36.00;;;;;;;0.92;93.35;97298.02;1745229;80;21541;-58
2021/12/06 08:03:08;;;;;;;75.65;37.42;;;;;;;0.93;93.30;97285.48;1752031;80;21149;-58
2021/12/06 08:05:36;;;;;;;67.22;36.68;;;;;;;0.95;93.23;97290.90;1748647;80;21819;-58
2021/12/06 08:08:12;;;;;;;72.37;37.17;;;;;;;0.98;93.10;97293.09;1764743;80;21436;-58
2021/12/06 08:10:43;;;;;;;54.27;28.32;;;;;;;0.98;92.69;97289.08;1743625;80;21123;-58
2021/12/06 08:13:09;;;;;;;54.63;28.60;;;;;;;0.98;92.75;97289.61;1753913;80;21105;-58
2021/12/06 08:15:36;;;;;;;49.67;25.05;;;;;;;1.00;92.60;97298.17;1762471;80;21066;-58
2021/12/06 08:18:02;;;;;;;46.90;24.02;;;;;;;0.97;92.97;97295.47;1758712;80;21144;-58
2021/12/06 08:20:28;;;;;;;46.25;23.83;;;;;;;0.97;92.88;97294.66;1755990;80;21000;-57
2021/12/06 08:22:53;;;;;;;36.00;20.32;;;;;;;0.96;92.70;97297.85;1745301;80;20990;-58
2021/12/06 08:25:21;;;;;;;45.12;24.25;;;;;;;0.97;92.80;97296.80;1741605;80;21404;-59
2021/12/06 08:27:46;;;;;;;42.38;23.02;;;;;;;1.02;92.44;97294.74;1735872;81;21118;-58
2021/12/06 08:30:13;;;;;;;49.90;26.85;;;;;;;1.01;92.56;97299.80;1737054;80;20927;-57
2021/12/06 08:32:40;;;;;;;32.28;20.40;;;;;;;1.03;92.32;97305.73;1744084;80;21090;-59
2021/12/06 08:35:06;;;;;;;32.05;14.93;;;;;;;1.04;92.30;97310.83;1747390;80;21688;-58
2021/12/06 08:37:32;;;;;;;32.10;16.75;;;;;;;0.98;93.25;97312.28;1746302;80;21914;-58
2021/12/06 08:39:58;;;;;;;36.35;18.95;;;;;;;0.98;92.95;97310.95;1746643;81;20957;-57
2021/12/06 08:42:24;;;;;;;32.85;18.62;;;;;;;0.98;92.88;97315.77;1770495;80;21809;-58
2021/12/06 08:44:50;;;;;;;22.58;12.60;;;;;;;1.04;92.70;97312.16;1753689;80;20957;-59
2021/12/06 08:47:17;;;;;;;24.75;12.68;;;;;;;1.06;92.75;97312.73;1755447;80;20902;-58
2021/12/06 08:49:44;;;;;;;23.55;14.83;;;;;;;1.01;93.07;97310.47;1766457;80;22002;-58
2021/12/06 08:52:10;;;;;;;43.52;22.77;;;;;;;0.98;93.30;97316.28;1754770;80;20946;-58
2021/12/06 08:54:36;;;;;;;26.95;18.57;;;;;;;0.99;93.27;97317.91;1747681;80;21078;-58
2021/12/06 08:57:03;;;;;;;24.67;14.45;;;;;;;0.95;93.55;97323.44;1749963;80;20963;-58
2021/12/06 08:59:28;;;;;;;27.93;15.72;;;;;;;0.98;93.35;97325.63;1734955;81;21000;-58
2021/12/06 09:01:57;;;;;;;19.82;11.63;;;;;;;0.99;93.21;97327.24;1739841;81;21133;-58
2021/12/06 09:04:27;;;;;;;21.07;11.88;;;;;;;0.90;93.58;97325.46;1746040;80;21087;-58
2021/12/06 09:06:53;;;;;;;22.48;12.60;;;;;;;0.88;93.70;97328.89;1752832;80;21608;-58
2021/12/06 09:09:21;;;;;;;19.70;10.88;;;;;;;0.86;93.77;97326.99;1737044;80;21258;-58
2021/12/06 09:11:47;;;;;;;22.67;12.53;;;;;;;0.87;93.75;97341.95;1747943;80;21117;-57
2021/12/06 09:14:15;;;;;;;25.82;13.48;;;;;;;0.92;93.37;97347.38;1746044;80;21520;-58
2021/12/06 09:16:41;;;;;;;24.43;13.58;;;;;;;0.94;93.21;97345.80;1743941;80;21027;-58
2021/12/06 09:19:08;;;;;;;21.82;13.43;;;;;;;0.93;93.23;97343.66;1743692;80;21095;-57
2021/12/06 09:21:37;;;;;;;21.55;13.62;;;;;;;0.94;93.09;97352.47;1745408;80;21499;-58
2021/12/06 09:24:03;;;;;;;22.30;12.83;;;;;;;0.94;93.21;97352.47;1747445;80;21172;-58
2021/12/06 09:26:29;;;;;;;30.37;15.50;;;;;;;0.97;92.96;97349.35;1741139;81;21224;-58
2021/12/06 09:28:56;;;;;;;31.52;19.52;;;;;;;1.01;92.81;97351.83;1753285;80;20911;-57
2021/12/06 09:31:22;;;;;;;31.68;17.42;;;;;;;1.06;92.71;97349.28;1742186;80;21514;-58
2021/12/06 09:33:48;;;;;;;25.45;13.45;;;;;;;1.06;92.42;97353.28;1753108;80;20983;-58
2021/12/06 09:36:14;;;;;;;30.52;17.07;;;;;;;1.06;92.42;97353.28;1751924;80;20854;-58
2021/12/06 09:38:41;;;;;;;24.25;14.63;;;;;;;1.10;92.43;97343.74;1751954;80;21849;-57
2021/12/06 09:41:18;;;;;;;26.57;13.72;;;;;;;1.15;92.27;97354.53;1752897;80;20992;-57
2021/12/06 09:43:42;;;;;;;40.52;21.42;;;;;;;1.21;92.23;97349.59;1744795;80;21058;-58
2021/12/06 09:46:10;;;;;;;43.90;24.45;;;;;;;1.27;92.22;97344.62;1745090;80;20896;-58
2021/12/06 09:48:36;;;;;;;38.63;22.50;;;;;;;1.33;92.06;97341.55;1744019;80;21070;-58
2021/12/06 09:51:07;;;;;;;36.75;19.48;;;;;;;1.32;91.85;97337.26;1741078;80;21118;-58
2021/12/06 09:53:35;;;;;;;33.08;18.10;;;;;;;1.29;91.79;97335.88;1742035;80;21071;-57
2021/12/06 09:56:09;;;;;;;27.17;16.55;;;;;;;1.34;91.79;97335.97;1741652;80;21361;-58
2021/12/06 09:58:35;;;;;;;25.68;14.60;;;;;;;1.40;91.78;97336.88;1742923;80;21592;-58
2021/12/06 10:01:07;;;;;;;21.45;13.48;;;;;;;1.42;91.72;97329.44;1744781;80;21059;-58
2021/12/06 10:03:33;;;;;;;24.07;16.05;;;;;;;1.49;91.72;97331.98;1743042;80;21147;-58
2021/12/06 10:06:02;;;;;;;31.17;16.45;;;;;;;1.52;91.71;97329.63;1742422;80;21016;-58
2021/12/06 10:08:36;;;;;;;;;;;;;;;1.46;91.37;97327.13;1748585;80;21111;-58
2021/12/06 10:11:04;;;;;;;23.20;12.63;;;;;;;1.37;91.13;97335.51;1752350;80;20252;-58
2021/12/06 10:13:31;;;;;;;24.45;13.58;;;;;;;1.25;91.08;97331.23;1747271;80;21219;-58
2021/12/06 10:15:57;;;;;;;24.20;13.13;;;;;;;1.18;91.01;97331.89;1734331;80;21455;-58
2021/12/06 10:18:23;;;;;;;22.35;13.72;;;;;;;1.12;90.91;97333.67;1749624;80;21039;-59
2021/12/06 10:20:49;;;;;;;29.15;16.00;;;;;;;1.10;90.96;97342.41;1740670;81;21644;-58
2021/12/06 10:23:16;;;;;;;29.42;14.55;;;;;;;1.09;91.23;97339.45;1743111;81;21126;-58
2021/12/06 10:25:45;;;;;;;34.10;18.40;;;;;;;1.03;91.49;97335.08;1738869;81;21011;-58
2021/12/06 10:28:11;;;;;;;33.90;18.40;;;;;;;0.94;91.90;97343.13;1751779;80;21109;-58
2021/12/06 10:30:45;;;;;;;36.77;19.23;;;;;;;0.98;91.96;97340.30;1735948;80;21117;-58
2021/12/06 10:33:17;;;;;;;34.10;17.82;;;;;;;0.98;91.84;97339.77;1751543;80;21561;-58
2021/12/06 10:35:47;;;;;;;29.37;17.25;;;;;;;1.02;91.82;97340.10;1745290;81;21094;-58
2021/12/06 10:38:22;;;;;;;35.70;20.60;;;;;;;1.07;91.60;97341.03;1716092;81;21557;-58
2021/12/06 10:40:48;;;;;;;33.40;18.35;;;;;;;1.12;91.50;97345.15;1742946;80;21339;-58
2021/12/06 10:43:14;;;;;;;27.98;17.15;;;;;;;1.14;91.57;97352.91;1750125;80;21149;-58
2021/12/06 10:45:44;;;;;;;40.40;22.60;;;;;;;;;;1749676;80;20874;-58
2021/12/06 10:48:27;;;;;;;29.60;16.25;;;;;;;1.17;91.31;97352.44;1751563;80;21015;-58
2021/12/06 10:51:01;;;;;;;35.73;20.92;;;;;;;1.16;91.46;97347.34;1751252;80;21172;-58
2021/12/06 10:53:36;;;;;;;28.73;15.78;;;;;;;1.11;91.57;97347.53;1758511;80;21027;-58
2021/12/06 10:56:01;;;;;;;27.17;15.23;;;;;;;1.08;91.62;97353.32;1744031;81;20992;-57
2021/12/06 10:58:29;;;;;;;31.68;15.98;;;;;;;1.07;91.77;97342.89;1751319;80;21165;-58
2021/12/06 11:01:10;;;;;;;26.20;14.63;;;;;;;1.15;91.32;97345.72;1742535;81;21646;-57
2021/12/06 11:03:45;;;;;;;22.58;12.78;;;;;;;1.12;91.70;97351.82;1742370;80;21144;-58
2021/12/06 11:06:13;;;;;;;29.15;16.87;;;;;;;1.13;91.60;97349.97;1742531;80;21905;-57
2021/12/06 11:08:42;;;;;;;29.55;16.52;;;;;;;1.11;91.79;97348.87;1748047;80;21148;-58
2021/12/06 11:11:17;;;;;;;27.85;16.10;;;;;;;1.03;92.02;97356.42;1750481;80;21515;-58
2021/12/06 11:13:46;;;;;;;28.05;15.05;;;;;;;1.10;91.60;97352.55;1755454;80;21193;-59
2021/12/06 11:16:19;;;;;;;29.12;15.95;;;;;;;1.11;91.77;97352.88;1749709;81;21573;-58
2021/12/06 11:19:05;;;;;;;26.37;15.08;;;;;;;1.16;91.51;97353.48;1738503;80;21481;-58
2021/12/06 11:21:56;;;;;;;28.70;16.15;;;;;;;1.14;91.59;97348.91;1745702;80;21545;-59
2021/12/06 11:24:26;;;;;;;27.48;15.63;;;;;;;1.11;91.57;97354.20;1652567;84;21201;-58
2021/12/06 11:27:22;;;;;;;30.30;16.85;;;;;;;1.13;91.46;97352.11;1725858;80;21777;-58
2021/12/06 11:30:03;;;;;;;32.67;15.10;;;;;;;1.16;91.47;97354.02;1746030;81;21154;-58
2021/12/06 11:32:35;;;;;;;28.95;15.60;;;;;;;1.15;91.40;97360.40;1781402;79;22045;-58
2021/12/06 11:35:08;;;;;;;28.83;16.52;;;;;;;1.13;91.52;97359.30;1744534;81;21639;-58
2021/12/06 11:37:43;;;;;;;24.45;14.75;;;;;;;1.15;91.55;97359.88;1744481;80;21000;-58
2021/12/06 11:40:26;;;;;;;34.63;19.92;;;;;;;1.20;91.38;97354.66;1746610;81;21004;-58